createdAt,value
2022-11-04T00:00:15.340Z,1.04
2022-11-04T00:01:14.902Z,1.04
2022-11-04T00:02:15.225Z,1.04
2022-11-04T00:03:15.221Z,1.04
2022-11-04T00:04:15.325Z,1.04
2022-11-04T00:05:15.479Z,1.04
2022-11-04T00:06:15.621Z,1.04
2022-11-04T00:07:15.781Z,1.04
2022-11-04T00:08:15.934Z,1.04
2022-11-04T00:09:16.086Z,1.04
2022-11-04T00:10:16.230Z,1.04
2022-11-04T00:11:16.338Z,1.04
2022-11-04T00:12:16.500Z,1.04
2022-11-04T00:13:16.634Z,1.04
2022-11-04T00:14:16.788Z,1.04
2022-11-04T00:15:17.448Z,1.04
2022-11-04T00:16:17.099Z,1.04
2022-11-04T00:17:17.248Z,1.04
2022-11-04T00:18:17.440Z,1.04
2022-11-04T00:19:17.536Z,1.04
2022-11-04T00:20:17.683Z,1.04
2022-11-04T00:21:17.797Z,1.04
2022-11-04T00:22:17.954Z,1.04
2022-11-04T00:23:18.118Z,1.04
2022-11-04T00:24:18.255Z,1.04
2022-11-04T00:25:18.408Z,1.04
2022-11-04T00:26:18.550Z,1.04
2022-11-04T00:27:18.713Z,1.04
2022-11-04T00:28:18.868Z,1.04
2022-11-04T00:29:18.962Z,1.04
2022-11-04T00:30:19.680Z,1.04
2022-11-04T00:31:19.216Z,1.04
2022-11-04T00:32:19.364Z,1.04
2022-11-04T00:33:19.520Z,1.04
2022-11-04T00:34:19.606Z,1.04
2022-11-04T00:35:19.758Z,1.04
2022-11-04T00:36:19.873Z,1.04
2022-11-04T00:37:20.023Z,1.04
2022-11-04T00:38:20.186Z,1.04
2022-11-04T00:39:20.326Z,1.04
2022-11-04T00:40:20.486Z,1.04
2022-11-04T00:41:20.629Z,1.04
2022-11-04T00:42:20.790Z,1.04
2022-11-04T00:43:20.894Z,1.04
2022-11-04T00:44:20.988Z,1.04
2022-11-04T00:45:21.660Z,1.04
2022-11-04T00:46:21.236Z,1.04
2022-11-04T00:47:21.395Z,1.04
2022-11-04T00:48:21.507Z,1.04
2022-11-04T00:49:21.645Z,1.04
2022-11-04T00:50:21.794Z,1.04
2022-11-04T00:51:21.949Z,1.04
2022-11-04T00:52:22.054Z,1.04
2022-11-04T00:53:22.195Z,1.04
2022-11-04T00:54:22.349Z,1.04
2022-11-04T00:55:22.508Z,1.04
2022-11-04T00:56:22.654Z,1.04
2022-11-04T00:57:22.825Z,1.04
2022-11-04T00:58:22.910Z,1.04
2022-11-04T00:59:23.070Z,1.04
2022-11-04T01:00:23.793Z,1.04
2022-11-04T01:01:23.536Z,1.04
2022-11-04T01:02:23.690Z,1.04
2022-11-04T01:03:23.664Z,1.04
2022-11-04T01:04:23.828Z,1.04
2022-11-04T01:05:23.967Z,1.04
2022-11-04T01:06:24.137Z,1.04
2022-11-04T01:07:24.279Z,1.04
2022-11-04T01:08:24.426Z,1.04
2022-11-04T01:09:24.583Z,1.04
2022-11-04T01:10:24.736Z,1.04
2022-11-04T01:11:24.887Z,1.04
2022-11-04T01:12:25.038Z,1.04
2022-11-04T01:13:25.156Z,1.04
2022-11-04T01:14:25.298Z,1.04
2022-11-04T01:15:26.057Z,1.04
2022-11-04T01:16:25.586Z,1.04
2022-11-04T01:17:26.265Z,1.04
2022-11-04T01:18:25.848Z,1.04
2022-11-04T01:19:26.008Z,1.04
2022-11-04T01:20:26.145Z,1.04
2022-11-04T01:21:26.293Z,1.04
2022-11-04T01:22:26.448Z,1.04
2022-11-04T01:23:26.597Z,1.04
2022-11-04T01:24:26.749Z,1.04
2022-11-04T01:25:26.942Z,1.04
2022-11-04T01:26:27.052Z,1.04
2022-11-04T01:27:27.213Z,1.04
2022-11-04T01:28:27.351Z,1.04
2022-11-04T01:29:27.520Z,1.04
2022-11-04T01:30:28.034Z,1.04
2022-11-04T01:31:27.769Z,1.04
2022-11-04T01:32:27.929Z,1.04
2022-11-04T01:33:28.059Z,1.04
2022-11-04T01:34:28.228Z,1.04
2022-11-04T01:35:28.394Z,1.04
2022-11-04T01:36:28.523Z,1.04
2022-11-04T01:37:28.672Z,1.04
2022-11-04T01:38:28.815Z,1.04
2022-11-04T01:39:28.983Z,1.04
2022-11-04T01:40:29.148Z,1.04
2022-11-04T01:41:29.287Z,1.04
2022-11-04T01:42:29.379Z,1.04
2022-11-04T01:43:29.528Z,1.04
2022-11-04T01:44:29.686Z,1.04
2022-11-04T01:45:30.468Z,1.04
2022-11-04T01:46:29.935Z,1.04
2022-11-04T01:47:30.101Z,1.04
2022-11-04T01:48:30.244Z,1.04
2022-11-04T01:49:30.407Z,1.04
2022-11-04T01:50:30.553Z,1.04
2022-11-04T01:51:30.716Z,1.04
2022-11-04T01:52:30.852Z,1.04
2022-11-04T01:53:30.996Z,1.04
2022-11-04T01:54:31.162Z,1.04
2022-11-04T01:55:31.304Z,1.04
2022-11-04T01:56:31.484Z,1.04
2022-11-04T01:57:31.612Z,1.04
2022-11-04T01:58:31.786Z,1.04
2022-11-04T01:59:32.533Z,1.04
2022-11-04T02:00:32.600Z,1.04
2022-11-04T02:01:32.318Z,1.04
2022-11-04T02:02:32.405Z,1.04
2022-11-04T02:03:32.428Z,1.04
2022-11-04T02:04:32.537Z,1.04
2022-11-04T02:05:32.671Z,1.04
2022-11-04T02:06:32.871Z,1.04
2022-11-04T02:07:32.977Z,1.04
2022-11-04T02:08:33.120Z,1.04
2022-11-04T02:09:33.278Z,1.04
2022-11-04T02:10:33.458Z,1.04
2022-11-04T02:11:33.587Z,1.04
2022-11-04T02:12:33.723Z,1.04
2022-11-04T02:13:33.889Z,1.04
2022-11-04T02:14:34.031Z,1.04
2022-11-04T02:15:34.766Z,1.04
2022-11-04T02:16:34.337Z,1.04
2022-11-04T02:17:34.441Z,1.04
2022-11-04T02:18:34.599Z,1.04
2022-11-04T02:19:34.757Z,1.04
2022-11-04T02:20:34.894Z,1.04
2022-11-04T02:21:35.056Z,1.04
2022-11-04T02:22:35.198Z,1.04
2022-11-04T02:23:35.401Z,1.04
2022-11-04T02:24:35.503Z,1.04
2022-11-04T02:25:35.609Z,1.04
2022-11-04T02:26:35.756Z,1.04
2022-11-04T02:27:35.906Z,1.04
2022-11-04T02:28:36.044Z,1.04
2022-11-04T02:29:36.785Z,1.04
2022-11-04T02:30:36.318Z,1.04
2022-11-04T02:31:36.463Z,1.04
2022-11-04T02:32:36.552Z,1.04
2022-11-04T02:33:36.695Z,1.04
2022-11-04T02:34:36.803Z,1.04
2022-11-04T02:35:36.897Z,1.04
2022-11-04T02:36:37.769Z,1.04
2022-11-04T02:37:37.189Z,1.04
2022-11-04T02:38:37.333Z,1.04
2022-11-04T02:39:37.432Z,1.04
2022-11-04T02:40:37.592Z,1.04
2022-11-04T02:41:37.734Z,1.04
2022-11-04T02:42:37.832Z,1.04
2022-11-04T02:43:37.987Z,1.04
2022-11-04T02:44:38.625Z,1.04
2022-11-04T02:45:38.280Z,1.04
2022-11-04T02:46:38.435Z,1.04
2022-11-04T02:47:38.585Z,1.04
2022-11-04T02:48:38.739Z,1.04
2022-11-04T02:49:38.896Z,1.04
2022-11-04T02:50:39.048Z,1.04
2022-11-04T02:51:39.194Z,1.04
2022-11-04T02:52:39.349Z,1.04
2022-11-04T02:53:39.506Z,1.04
2022-11-04T02:54:39.650Z,1.04
2022-11-04T02:55:39.811Z,1.04
2022-11-04T02:56:39.962Z,1.04
2022-11-04T02:57:40.113Z,1.04
2022-11-04T02:58:40.211Z,1.04
2022-11-04T02:59:40.831Z,1.04
2022-11-04T03:00:40.467Z,1.04
2022-11-04T03:01:40.727Z,1.04
2022-11-04T03:02:40.722Z,1.04
2022-11-04T03:03:40.859Z,1.04
2022-11-04T03:04:40.961Z,1.04
2022-11-04T03:05:41.123Z,1.04
2022-11-04T03:06:41.267Z,1.04
2022-11-04T03:07:41.427Z,1.04
2022-11-04T03:08:41.589Z,1.04
2022-11-04T03:09:41.732Z,1.04
2022-11-04T03:10:41.891Z,1.04
2022-11-04T03:11:42.033Z,1.04
2022-11-04T03:12:42.192Z,1.04
2022-11-04T03:13:42.349Z,1.04
2022-11-04T03:14:43.035Z,1.04
2022-11-04T03:15:42.629Z,1.04
2022-11-04T03:16:42.757Z,1.04
2022-11-04T03:17:42.888Z,1.04
2022-11-04T03:18:43.042Z,1.04
2022-11-04T03:19:43.149Z,1.04
2022-11-04T03:20:43.302Z,1.04
2022-11-04T03:21:43.449Z,1.04
2022-11-04T03:22:43.601Z,1.04
2022-11-04T03:23:43.745Z,1.04
2022-11-04T03:24:43.902Z,1.04
2022-11-04T03:25:44.056Z,1.04
2022-11-04T03:26:44.211Z,1.04
2022-11-04T03:27:44.371Z,1.04
2022-11-04T03:28:44.519Z,1.04
2022-11-04T03:29:45.335Z,1.04
2022-11-04T03:30:44.808Z,1.04
2022-11-04T03:31:44.997Z,1.04
2022-11-04T03:32:45.134Z,1.04
2022-11-04T03:33:45.269Z,1.04
2022-11-04T03:34:45.422Z,1.04
2022-11-04T03:35:45.592Z,1.04
2022-11-04T03:36:45.717Z,1.04
2022-11-04T03:37:46.451Z,1.04
2022-11-04T03:38:46.023Z,1.04
2022-11-04T03:39:46.135Z,1.04
2022-11-04T03:40:46.283Z,1.04
2022-11-04T03:41:46.429Z,1.04
2022-11-04T03:42:46.593Z,1.04
2022-11-04T03:43:46.781Z,1.04
2022-11-04T03:44:47.472Z,1.04
2022-11-04T03:45:46.985Z,1.04
2022-11-04T03:46:47.143Z,1.04
2022-11-04T03:47:47.302Z,1.04
2022-11-04T03:48:47.404Z,1.04
2022-11-04T03:49:47.554Z,1.04
2022-11-04T03:50:47.730Z,1.04
2022-11-04T03:51:47.848Z,1.04
2022-11-04T03:52:48.003Z,1.04
2022-11-04T03:53:48.101Z,1.04
2022-11-04T03:54:48.243Z,1.04
2022-11-04T03:55:48.400Z,1.04
2022-11-04T03:56:48.630Z,1.04
2022-11-04T03:57:48.704Z,1.04
2022-11-04T03:58:48.842Z,1.04
2022-11-04T03:59:49.009Z,1.04
2022-11-04T04:00:49.236Z,1.04
2022-11-04T04:01:49.408Z,1.04
2022-11-04T04:02:49.468Z,1.04
2022-11-04T04:03:49.617Z,1.04
2022-11-04T04:04:49.776Z,1.04
2022-11-04T04:05:49.924Z,1.04
2022-11-04T04:06:50.080Z,1.04
2022-11-04T04:07:50.228Z,1.04
2022-11-04T04:08:50.370Z,1.04
2022-11-04T04:09:50.571Z,1.04
2022-11-04T04:10:51.621Z,1.04
2022-11-04T04:11:50.776Z,1.04
2022-11-04T04:12:50.938Z,1.04
2022-11-04T04:13:51.038Z,1.04
2022-11-04T04:14:51.829Z,1.04
2022-11-04T04:15:51.325Z,1.04
2022-11-04T04:16:51.434Z,1.04
2022-11-04T04:17:51.627Z,1.04
2022-11-04T04:18:53.984Z,1.04
2022-11-04T04:19:51.902Z,1.04
2022-11-04T04:20:52.047Z,1.04
2022-11-04T04:21:52.230Z,1.04
2022-11-04T04:22:52.362Z,1.04
2022-11-04T04:23:52.509Z,1.04
2022-11-04T04:24:52.658Z,1.04
2022-11-04T04:25:52.803Z,1.04
2022-11-04T04:26:52.950Z,1.04
2022-11-04T04:27:53.112Z,1.04
2022-11-04T04:28:53.268Z,1.04
2022-11-04T04:29:54.065Z,1.04
2022-11-04T04:30:57.723Z,1.04
2022-11-04T04:31:53.668Z,1.04
2022-11-04T04:32:53.855Z,1.04
2022-11-04T04:33:53.976Z,1.04
2022-11-04T04:34:54.123Z,1.04
2022-11-04T04:35:54.283Z,1.04
2022-11-04T04:36:54.432Z,1.04
2022-11-04T04:37:54.583Z,1.04
2022-11-04T04:38:54.735Z,1.04
2022-11-04T04:39:54.827Z,1.04
2022-11-04T04:40:55.042Z,1.04
2022-11-04T04:41:55.127Z,1.04
2022-11-04T04:42:55.303Z,1.04
2022-11-04T04:43:55.441Z,1.04
2022-11-04T04:44:56.139Z,1.04
2022-11-04T04:45:55.727Z,1.04
2022-11-04T04:46:55.886Z,1.04
2022-11-04T04:47:56.043Z,1.04
2022-11-04T04:48:56.208Z,1.04
2022-11-04T04:49:56.297Z,1.04
2022-11-04T04:50:56.453Z,1.04
2022-11-04T04:51:56.602Z,1.04
2022-11-04T04:52:56.710Z,1.04
2022-11-04T04:53:56.806Z,1.04
2022-11-04T04:54:56.910Z,1.04
2022-11-04T04:55:57.056Z,1.04
2022-11-04T04:56:57.204Z,1.04
2022-11-04T04:57:57.363Z,1.04
2022-11-04T04:58:57.509Z,1.04
2022-11-04T04:59:58.092Z,1.04
2022-11-04T05:00:57.843Z,1.04
2022-11-04T05:01:57.975Z,1.04
2022-11-04T05:02:57.964Z,1.04
2022-11-04T05:03:58.126Z,1.04
2022-11-04T05:04:58.286Z,1.04
2022-11-04T05:05:58.788Z,1.04
2022-11-04T05:06:58.577Z,1.04
2022-11-04T05:07:58.726Z,1.04
2022-11-04T05:08:58.902Z,1.04
2022-11-04T05:09:59.040Z,1.04
2022-11-04T05:10:59.167Z,1.04
2022-11-04T05:11:59.336Z,1.04
2022-11-04T05:12:59.450Z,1.04
2022-11-04T05:13:59.541Z,1.04
2022-11-04T05:15:00.186Z,1.04
2022-11-04T05:15:59.739Z,1.04
2022-11-04T05:16:59.891Z,1.04
2022-11-04T05:18:00.052Z,1.04
2022-11-04T05:19:00.198Z,1.04
2022-11-04T05:20:00.356Z,1.04
2022-11-04T05:21:00.501Z,1.04
2022-11-04T05:22:00.658Z,1.04
2022-11-04T05:23:00.791Z,1.04
2022-11-04T05:24:00.962Z,1.04
2022-11-04T05:25:01.109Z,1.04
2022-11-04T05:26:01.261Z,1.04
2022-11-04T05:27:01.420Z,1.04
2022-11-04T05:28:01.554Z,1.04
2022-11-04T05:29:01.745Z,1.04
2022-11-04T05:30:02.403Z,1.04
2022-11-04T05:31:02.010Z,1.04
2022-11-04T05:32:02.106Z,1.04
2022-11-04T05:33:03.679Z,1.04
2022-11-04T05:34:02.365Z,2
2022-11-04T05:35:02.470Z,2
2022-11-04T05:36:02.628Z,2
2022-11-04T05:37:02.772Z,2
2022-11-04T05:38:02.926Z,3.04
2022-11-04T05:39:03.082Z,3.04
2022-11-04T05:40:03.229Z,4
2022-11-04T05:41:03.331Z,5.04
2022-11-04T05:42:03.484Z,5.04
2022-11-04T05:43:03.631Z,6
2022-11-04T05:44:03.738Z,7.04
2022-11-04T05:45:04.458Z,9.04
2022-11-04T05:46:04.044Z,11.04
2022-11-04T05:47:04.181Z,13.04
2022-11-04T05:48:04.349Z,15.04
2022-11-04T05:49:04.483Z,16
2022-11-04T05:50:04.583Z,19.04
2022-11-04T05:51:04.744Z,21.04
2022-11-04T05:52:04.902Z,24
2022-11-04T05:53:05.046Z,26
2022-11-04T05:54:05.220Z,29.04
2022-11-04T05:55:05.407Z,31.04
2022-11-04T05:56:06.212Z,33.04
2022-11-04T05:57:05.618Z,36
2022-11-04T05:58:05.967Z,40
2022-11-04T05:59:05.937Z,42
2022-11-04T06:00:06.695Z,46
2022-11-04T06:01:06.174Z,49.04
2022-11-04T06:02:06.478Z,53.04
2022-11-04T06:03:07.574Z,56
2022-11-04T06:04:06.578Z,62
2022-11-04T06:05:06.730Z,68
2022-11-04T06:06:06.828Z,75.04
2022-11-04T06:07:06.982Z,81.04
2022-11-04T06:08:07.430Z,94
2022-11-04T06:09:07.224Z,99.04
2022-11-04T06:10:07.886Z,104
2022-11-04T06:11:07.523Z,108
2022-11-04T06:12:07.631Z,112
2022-11-04T06:13:07.773Z,116
2022-11-04T06:14:07.887Z,121.04
2022-11-04T06:15:08.644Z,125.04
2022-11-04T06:16:08.132Z,130
2022-11-04T06:17:08.375Z,134
2022-11-04T06:18:08.739Z,139.04
2022-11-04T06:19:12.054Z,143.04
2022-11-04T06:20:08.743Z,146
2022-11-04T06:21:08.892Z,148
2022-11-04T06:22:09.122Z,153.04
2022-11-04T06:23:09.198Z,158
2022-11-04T06:24:09.360Z,165.12
2022-11-04T06:25:09.506Z,170.08
2022-11-04T06:26:09.608Z,178.08
2022-11-04T06:27:09.756Z,184
2022-11-04T06:28:10.259Z,190.08
2022-11-04T06:29:10.059Z,197.12
2022-11-04T06:30:10.737Z,205.12
2022-11-04T06:31:10.360Z,217.12
2022-11-04T06:32:10.533Z,228
2022-11-04T06:33:10.681Z,242.08
2022-11-04T06:34:10.828Z,255.04
2022-11-04T06:35:10.981Z,275.04
2022-11-04T06:36:11.163Z,296
2022-11-04T06:37:11.293Z,326.08
2022-11-04T06:38:11.625Z,372.16
2022-11-04T06:39:11.534Z,427.2
2022-11-04T06:40:11.692Z,501.12
2022-11-04T06:41:11.844Z,572.16
2022-11-04T06:42:11.929Z,646.08
2022-11-04T06:43:12.274Z,739.2
2022-11-04T06:44:12.254Z,809.6
2022-11-04T06:45:13.102Z,876.16
2022-11-04T06:46:12.682Z,958.08
2022-11-04T06:47:12.862Z,1021.44
2022-11-04T06:48:12.945Z,1088
2022-11-04T06:49:13.055Z,1125.12
2022-11-04T06:50:13.207Z,1172.48
2022-11-04T06:51:13.342Z,1205.12
2022-11-04T06:52:13.509Z,1245.44
2022-11-04T06:53:13.658Z,1286.4
2022-11-04T06:54:13.825Z,1408
2022-11-04T06:55:13.970Z,1518.08
2022-11-04T06:56:14.110Z,1661.44
2022-11-04T06:57:14.225Z,1811.2
2022-11-04T06:58:14.336Z,2008.32
2022-11-04T06:59:14.436Z,2201.6
2022-11-04T07:00:15.086Z,2325.76
2022-11-04T07:01:17.302Z,2462.72
2022-11-04T07:02:14.907Z,2528
2022-11-04T07:03:14.932Z,2547.2
2022-11-04T07:04:15.018Z,2496
2022-11-04T07:05:15.169Z,2295.04
2022-11-04T07:06:15.279Z,2117.12
2022-11-04T07:07:15.375Z,1977.6
2022-11-04T07:08:15.489Z,1950.72
2022-11-04T07:09:15.819Z,1911.04
2022-11-04T07:10:15.779Z,1848.32
2022-11-04T07:11:15.933Z,1754.88
2022-11-04T07:12:16.096Z,1646.08
2022-11-04T07:13:16.231Z,1610.24
2022-11-04T07:14:16.370Z,1642.24
2022-11-04T07:15:17.171Z,1717.76
2022-11-04T07:16:16.682Z,1862.4
2022-11-04T07:17:16.796Z,1999.36
2022-11-04T07:18:16.951Z,2140.16
2022-11-04T07:19:17.089Z,2186.24
2022-11-04T07:20:17.254Z,2158.08
2022-11-04T07:21:17.396Z,2087.68
2022-11-04T07:22:17.560Z,1987.84
2022-11-04T07:23:17.702Z,1893.12
2022-11-04T07:24:17.855Z,1660.16
2022-11-04T07:25:18.011Z,1422.08
2022-11-04T07:26:18.158Z,1195.52
2022-11-04T07:27:18.327Z,1085.44
2022-11-04T07:28:18.424Z,1031.04
2022-11-04T07:29:19.294Z,1102.08
2022-11-04T07:30:19.219Z,1245.44
2022-11-04T07:31:18.810Z,1390.08
2022-11-04T07:32:18.959Z,1406.72
2022-11-04T07:33:19.117Z,1340.16
2022-11-04T07:34:19.282Z,1304.32
2022-11-04T07:35:19.445Z,1312
2022-11-04T07:36:19.586Z,1355.52
2022-11-04T07:37:19.723Z,1413.12
2022-11-04T07:38:19.874Z,1488.64
2022-11-04T07:39:20.044Z,1628.16
2022-11-04T07:40:20.180Z,1731.84
2022-11-04T07:41:20.339Z,1765.12
2022-11-04T07:42:20.479Z,1648.64
2022-11-04T07:43:20.639Z,1410.56
2022-11-04T07:44:20.773Z,1250.56
2022-11-04T07:45:21.475Z,1093.12
2022-11-04T07:46:21.063Z,1033.6
2022-11-04T07:47:21.187Z,1014.4
2022-11-04T07:48:21.349Z,1006.08
2022-11-04T07:49:21.441Z,1033.6
2022-11-04T07:50:21.720Z,1115.52
2022-11-04T07:51:21.748Z,1275.52
2022-11-04T07:52:21.903Z,1497.6
2022-11-04T07:53:22.085Z,1716.48
2022-11-04T07:54:22.201Z,1982.72
2022-11-04T07:55:22.381Z,2261.76
2022-11-04T07:56:22.509Z,2535.68
2022-11-04T07:57:22.609Z,2736.64
2022-11-04T07:58:22.795Z,2821.12
2022-11-04T07:59:22.904Z,2872.32
2022-11-04T08:00:23.618Z,3023.36
2022-11-04T08:01:23.300Z,3379.2
2022-11-04T08:02:26.667Z,3850.24
2022-11-04T08:03:23.561Z,4144.64
2022-11-04T08:04:23.674Z,4313.6
2022-11-04T08:05:23.820Z,4326.4
2022-11-04T08:06:23.990Z,4282.88
2022-11-04T08:07:24.129Z,4175.36
2022-11-04T08:08:24.276Z,4047.36
2022-11-04T08:09:24.523Z,4011.52
2022-11-04T08:10:24.679Z,4019.2
2022-11-04T08:11:24.744Z,4024.32
2022-11-04T08:12:24.892Z,3965.44
2022-11-04T08:13:24.988Z,3837.44
2022-11-04T08:14:25.144Z,3642.88
2022-11-04T08:15:25.813Z,3248.64
2022-11-04T08:16:28.777Z,2992.64
2022-11-04T08:17:25.583Z,2800.64
2022-11-04T08:18:25.697Z,2767.36
2022-11-04T08:19:25.851Z,2846.72
2022-11-04T08:20:26.016Z,3000.32
2022-11-04T08:21:26.193Z,2967.04
2022-11-04T08:22:30.258Z,2813.44
2022-11-04T08:23:26.462Z,2734.08
2022-11-04T08:24:26.613Z,2828.8
2022-11-04T08:25:26.771Z,2997.76
2022-11-04T08:26:26.882Z,2910.72
2022-11-04T08:27:27.006Z,2851.84
2022-11-04T08:28:27.163Z,2769.92
2022-11-04T08:29:27.328Z,2451.2
2022-11-04T08:30:27.998Z,2159.36
2022-11-04T08:31:27.606Z,1866.24
2022-11-04T08:32:27.751Z,1710.08
2022-11-04T08:33:27.869Z,1940.48
2022-11-04T08:34:28.015Z,1981.44
2022-11-04T08:35:28.160Z,2287.36
2022-11-04T08:36:28.234Z,2849.28
2022-11-04T08:37:28.371Z,2479.36
2022-11-04T08:38:28.550Z,2531.84
2022-11-04T08:39:28.699Z,2931.2
2022-11-04T08:40:28.848Z,3228.16
2022-11-04T08:41:28.935Z,3228.16
2022-11-04T08:42:29.115Z,3573.76
2022-11-04T08:43:29.233Z,3397.12
2022-11-04T08:44:29.393Z,2895.36
2022-11-04T08:45:33.611Z,2328.32
2022-11-04T08:46:29.578Z,1861.12
2022-11-04T08:47:29.745Z,1852.16
2022-11-04T08:48:29.886Z,2496
2022-11-04T08:49:30.048Z,3118.08
2022-11-04T08:50:30.152Z,3251.2
2022-11-04T08:51:30.292Z,3891.2
2022-11-04T08:52:30.450Z,4966.4
2022-11-04T08:53:30.596Z,5294.08
2022-11-04T08:54:30.704Z,5299.2
2022-11-04T08:55:30.861Z,5143.04
2022-11-04T08:56:31.018Z,4595.2
2022-11-04T08:57:31.154Z,4392.96
2022-11-04T08:58:31.312Z,4121.6
2022-11-04T08:59:31.456Z,4503.04
2022-11-04T09:00:32.142Z,4628.48
2022-11-04T09:01:35.558Z,4590.08
2022-11-04T09:02:31.888Z,4620.8
2022-11-04T09:03:32.117Z,4503.04
2022-11-04T09:04:32.122Z,4474.88
2022-11-04T09:05:32.302Z,4346.88
2022-11-04T09:06:32.417Z,4034.56
2022-11-04T09:07:32.581Z,3709.44
2022-11-04T09:08:32.701Z,3537.92
2022-11-04T09:09:32.821Z,3248.64
2022-11-04T09:10:32.987Z,3072
2022-11-04T09:11:33.136Z,2964.48
2022-11-04T09:12:33.283Z,2897.92
2022-11-04T09:13:39.167Z,2836.48
2022-11-04T09:14:33.540Z,2816
2022-11-04T09:15:33.732Z,2798.08
2022-11-04T09:16:33.828Z,2803.2
2022-11-04T09:17:33.935Z,2887.68
2022-11-04T09:18:34.074Z,2967.04
2022-11-04T09:19:34.230Z,2984.96
2022-11-04T09:20:34.331Z,2951.68
2022-11-04T09:21:34.483Z,2918.4
2022-11-04T09:22:34.667Z,2872.32
2022-11-04T09:23:34.903Z,2769.92
2022-11-04T09:24:34.901Z,2787.84
2022-11-04T09:25:35.061Z,2882.56
2022-11-04T09:26:35.206Z,3038.72
2022-11-04T09:27:35.350Z,3159.04
2022-11-04T09:28:35.506Z,3212.8
2022-11-04T09:29:36.161Z,3235.84
2022-11-04T09:30:35.708Z,3187.2
2022-11-04T09:31:35.900Z,3105.28
2022-11-04T09:32:36.035Z,3018.24
2022-11-04T09:33:36.179Z,2967.04
2022-11-04T09:34:36.338Z,2979.84
2022-11-04T09:35:36.484Z,3000.32
2022-11-04T09:36:36.571Z,2974.72
2022-11-04T09:37:36.678Z,2938.88
2022-11-04T09:38:36.832Z,2864.64
2022-11-04T09:39:37.556Z,2818.56
2022-11-04T09:40:37.145Z,2805.76
2022-11-04T09:41:37.272Z,2836.48
2022-11-04T09:42:37.436Z,2880
2022-11-04T09:43:37.581Z,2933.76
2022-11-04T09:44:53.588Z,2936.32
2022-11-04T09:45:37.883Z,2897.92
2022-11-04T09:46:37.991Z,2903.04
2022-11-04T09:47:38.143Z,2931.2
2022-11-04T09:48:38.310Z,2931.2
2022-11-04T09:49:38.455Z,2920.96
2022-11-04T09:50:38.594Z,2872.32
2022-11-04T09:51:53.590Z,2828.8
2022-11-04T09:52:38.905Z,2777.6
2022-11-04T09:53:39.049Z,2726.4
2022-11-04T09:54:41.868Z,2670.08
2022-11-04T09:55:39.362Z,2629.12
2022-11-04T09:56:39.503Z,2606.08
2022-11-04T09:57:39.768Z,2611.2
2022-11-04T09:58:39.819Z,2636.8
2022-11-04T09:59:40.538Z,2667.52
2022-11-04T10:00:40.164Z,2688
2022-11-04T10:01:40.355Z,2677.76
2022-11-04T10:02:40.526Z,2657.28
2022-11-04T10:03:40.472Z,2616.32
2022-11-04T10:04:40.662Z,2576.64
2022-11-04T10:05:41.349Z,2551.04
2022-11-04T10:06:40.924Z,2525.44
2022-11-04T10:07:41.041Z,2508.8
2022-11-04T10:08:41.185Z,2501.12
2022-11-04T10:09:41.334Z,2512.64
2022-11-04T10:10:41.468Z,2524.16
2022-11-04T10:11:41.582Z,2520.32
2022-11-04T10:12:41.743Z,2487.04
2022-11-04T10:13:41.892Z,2440.96
2022-11-04T10:14:43.205Z,2371.84
2022-11-04T10:15:42.184Z,2355.2
2022-11-04T10:16:42.347Z,2405.12
2022-11-04T10:17:42.426Z,2470.4
2022-11-04T10:18:42.583Z,2533.12
2022-11-04T10:19:42.741Z,2524.16
2022-11-04T10:20:44.048Z,2451.2
2022-11-04T10:21:43.024Z,2371.84
2022-11-04T10:22:43.160Z,2277.12
2022-11-04T10:23:43.303Z,2236.16
2022-11-04T10:24:43.398Z,2236.16
2022-11-04T10:25:43.555Z,2288.64
2022-11-04T10:26:43.698Z,2350.08
2022-11-04T10:27:43.826Z,2400
2022-11-04T10:28:43.958Z,2432
2022-11-04T10:29:44.680Z,2447.36
2022-11-04T10:30:44.257Z,2503.68
2022-11-04T10:31:44.428Z,2556.16
2022-11-04T10:32:44.566Z,2606.08
2022-11-04T10:33:44.723Z,2672.64
2022-11-04T10:34:44.878Z,2721.28
2022-11-04T10:35:45.034Z,2798.08
2022-11-04T10:36:45.130Z,2913.28
2022-11-04T10:37:45.271Z,3018.24
2022-11-04T10:38:45.424Z,3031.04
2022-11-04T10:39:45.582Z,2951.68
2022-11-04T10:40:45.739Z,2844.16
2022-11-04T10:41:45.913Z,2716.16
2022-11-04T10:42:45.980Z,2654.72
2022-11-04T10:43:46.134Z,2644.48
2022-11-04T10:44:46.992Z,2670.08
2022-11-04T10:45:46.437Z,2703.36
2022-11-04T10:46:46.593Z,2711.04
2022-11-04T10:47:46.792Z,2713.6
2022-11-04T10:48:46.906Z,2721.28
2022-11-04T10:50:07.119Z,2723.84
2022-11-04T10:50:47.154Z,2726.4
2022-11-04T10:51:47.301Z,2734.08
2022-11-04T10:52:47.512Z,2744.32
2022-11-04T10:53:47.602Z,2752
2022-11-04T10:54:47.735Z,2792.96
2022-11-04T10:55:47.891Z,2821.12
2022-11-04T10:56:48.041Z,2846.72
2022-11-04T10:57:48.119Z,2877.44
2022-11-04T10:58:48.254Z,2951.68
2022-11-04T10:59:48.459Z,3072
2022-11-04T11:00:49.157Z,3210.24
2022-11-04T11:01:48.767Z,3292.16
2022-11-04T11:02:48.815Z,3368.96
2022-11-04T11:03:48.922Z,3399.68
2022-11-04T11:04:48.998Z,3366.4
2022-11-04T11:05:49.751Z,3356.16
2022-11-04T11:06:49.337Z,3338.24
2022-11-04T11:07:49.487Z,3389.44
2022-11-04T11:08:49.631Z,3353.6
2022-11-04T11:09:53.725Z,3456
2022-11-04T11:10:49.956Z,3612.16
2022-11-04T11:11:50.089Z,3709.44
2022-11-04T11:12:51.580Z,3811.84
2022-11-04T11:13:50.385Z,3898.88
2022-11-04T11:14:51.019Z,4024.32
2022-11-04T11:15:50.660Z,4139.52
2022-11-04T11:16:50.743Z,4354.56
2022-11-04T11:17:50.893Z,4669.44
2022-11-04T11:18:51.046Z,5199.36
2022-11-04T11:19:51.240Z,5667.84
2022-11-04T11:20:51.291Z,6241.28
2022-11-04T11:21:51.445Z,6502.4
2022-11-04T11:22:51.599Z,6671.36
2022-11-04T11:23:51.762Z,6737.92
2022-11-04T11:24:51.903Z,6784
2022-11-04T11:25:52.057Z,6830.08
2022-11-04T11:26:52.199Z,6732.8
2022-11-04T11:27:52.363Z,6543.36
2022-11-04T11:28:57.554Z,6292.48
2022-11-04T11:29:53.235Z,6154.24
2022-11-04T11:30:52.799Z,6010.88
2022-11-04T11:31:52.936Z,5944.32
2022-11-04T11:32:53.084Z,5857.28
2022-11-04T11:33:53.171Z,5888
2022-11-04T11:34:53.319Z,6021.12
2022-11-04T11:35:53.475Z,6338.56
2022-11-04T11:36:53.610Z,6650.88
2022-11-04T11:37:53.747Z,7004.16
2022-11-04T11:38:53.874Z,7224.32
2022-11-04T11:39:53.974Z,7403.52
2022-11-04T11:41:18.619Z,7536.64
2022-11-04T11:41:54.292Z,7598.08
2022-11-04T11:42:54.436Z,7659.52
2022-11-04T11:43:54.651Z,7669.76
2022-11-04T11:44:55.396Z,7669.76
2022-11-04T11:45:54.878Z,7623.68
2022-11-04T11:46:55.038Z,7562.24
2022-11-04T11:47:55.211Z,7485.44
2022-11-04T11:48:55.349Z,7434.24
2022-11-04T11:49:55.495Z,7331.84
2022-11-04T11:50:55.647Z,7311.36
2022-11-04T11:51:55.828Z,7372.8
2022-11-04T11:52:55.963Z,7485.44
2022-11-04T11:53:56.110Z,7690.24
2022-11-04T11:54:56.277Z,7854.08
2022-11-04T11:55:56.393Z,8058.88
2022-11-04T11:57:12.989Z,8294.4
2022-11-04T12:01:03.382Z,7598.08
2022-11-04T12:01:57.405Z,7255.04
2022-11-04T12:02:57.911Z,7086.08
2022-11-04T12:06:19.097Z,6374.4
2022-11-04T12:09:59.398Z,5376
2022-11-04T12:10:58.477Z,5437.44
2022-11-04T12:11:58.639Z,5493.76
2022-11-04T12:12:58.731Z,5524.48
2022-11-04T12:13:58.880Z,5990.4
2022-11-04T12:14:59.569Z,6604.8
2022-11-04T12:15:59.131Z,7480.32
2022-11-04T12:16:59.301Z,8151.04
2022-11-04T12:17:59.432Z,8857.6
2022-11-04T12:18:59.546Z,9047.04
2022-11-04T12:19:59.694Z,9093.12
2022-11-04T12:20:59.851Z,9000.96
2022-11-04T12:21:59.953Z,8857.6
2022-11-04T12:23:00.097Z,8903.68
2022-11-04T12:24:00.249Z,9036.8
2022-11-04T12:25:00.359Z,9093.12
2022-11-04T12:26:00.501Z,9006.08
2022-11-04T12:27:00.621Z,8739.84
2022-11-04T12:28:00.759Z,8253.44
2022-11-04T12:29:00.955Z,7925.76
2022-11-04T12:30:01.585Z,7695.36
2022-11-04T12:31:01.157Z,7470.08
2022-11-04T12:32:01.257Z,7357.44
2022-11-04T12:33:01.405Z,7219.2
2022-11-04T12:34:01.551Z,7019.52
2022-11-04T12:35:01.668Z,6860.8
2022-11-04T12:36:01.805Z,6886.4
2022-11-04T12:37:02.594Z,6886.4
2022-11-04T12:38:02.134Z,6743.04
2022-11-04T12:39:02.280Z,6420.48
2022-11-04T12:40:02.428Z,6282.24
2022-11-04T12:41:28.033Z,6103.04
2022-11-04T12:42:20.868Z,5928.96
2022-11-04T12:43:02.882Z,5893.12
2022-11-04T12:44:03.037Z,5939.2
2022-11-04T12:45:03.810Z,5806.08
2022-11-04T12:46:03.337Z,5565.44
2022-11-04T12:47:03.517Z,5268.48
2022-11-04T12:48:03.638Z,5140.48
2022-11-04T12:49:07.146Z,5224.96
2022-11-04T12:50:03.895Z,5386.24
2022-11-04T12:51:04.054Z,5719.04
2022-11-04T12:52:04.194Z,6184.96
2022-11-04T12:53:04.302Z,6722.56
2022-11-04T12:54:04.454Z,6927.36
2022-11-04T12:55:04.617Z,7029.76